Time;durP1;ratioP1;P1;durP2;ratioP2;P2;SDS_P1;SDS_P2;PMS_P1;PMS_P2;Temp;Humidity;BMP_temperature;BMP_pressure;BME280_temperature;BME280_humidity;BME280_pressure;Samples;Min_cycle;Max_cycle;Signal;HPM_P1;HPM_P2
2022/09/19 00:01:06;;;;;;;0.23;0.23;;;;;;;10.50;68.49;99108.22;5071328;28;20705;-82
2022/09/19 00:03:35;;;;;;;0.10;0.10;;;;;;;10.46;68.53;99100.88;5073244;28;20206;-82
2022/09/19 00:06:02;;;;;;;0.10;0.10;;;;;;;10.47;68.57;99102.50;5074508;28;20249;-82
2022/09/19 00:08:29;;;;;;;0.07;0.07;;;;;;;10.45;68.55;99094.94;5074340;28;20202;-82
2022/09/19 00:10:56;;;;;;;0.20;0.20;;;;;;;10.45;68.42;99094.94;5073633;28;20325;-82
2022/09/19 00:13:23;;;;;;;0.30;0.30;;;;;;;10.41;68.64;99098.63;5073197;28;20199;-82
2022/09/19 00:15:51;;;;;;;0.20;0.20;;;;;;;10.36;68.82;99093.06;5072229;28;20731;-82
2022/09/19 00:18:17;;;;;;;0.20;0.20;;;;;;;10.31;68.80;99082.34;5071966;28;20234;-82
2022/09/19 00:20:47;;;;;;;0.33;0.33;;;;;;;10.37;68.68;99097.22;5071582;28;20729;-82
2022/09/19 00:26:00;;;;;;;0.20;0.20;;;;;;;10.29;68.80;99095.22;5070955;28;20230;-82
2022/09/19 00:28:27;;;;;;;0.20;0.20;;;;;;;10.18;69.39;99088.28;5070287;28;20199;-82
2022/09/19 00:30:55;;;;;;;0.20;0.20;;;;;;;10.23;69.15;99084.56;5070680;28;20234;-82
2022/09/19 00:33:22;;;;;;;0.20;0.20;;;;;;;10.18;69.20;99083.19;5070350;28;20198;-82
2022/09/19 00:35:54;;;;;;;0.20;0.20;;;;;;;10.19;68.68;99100.13;5072975;28;20222;-81
2022/09/19 00:38:21;;;;;;;0.73;0.33;;;;;;;10.30;68.45;99096.03;5078700;28;20230;-82
2022/09/19 00:40:48;;;;;;;0.10;0.10;;;;;;;10.35;67.98;99093.97;5078747;28;20249;-82
2022/09/19 00:43:17;;;;;;;0.83;0.30;;;;;;;10.42;68.05;99095.16;5078652;28;20248;-82
2022/09/19 00:45:45;;;;;;;0.20;0.20;;;;;;;10.43;68.39;99096.78;5077278;28;20214;-82
2022/09/19 00:48:15;;;;;;;0.20;0.17;;;;;;;10.34;69.04;99097.44;5076171;28;20765;-82
2022/09/19 00:50:45;;;;;;;0.10;0.10;;;;;;;10.30;68.64;99098.59;5076727;28;20261;-82
2022/09/19 00:53:16;;;;;;;0.30;0.30;;;;;;;10.31;68.87;99092.56;5075727;28;20207;-82
2022/09/19 00:55:43;;;;;;;0.10;0.10;;;;;;;10.33;68.66;99095.81;5075191;28;20218;-82
2022/09/19 00:58:16;;;;;;;0.23;0.23;;;;;;;10.33;67.83;99081.31;5075026;28;20238;-81
2022/09/19 01:00:43;;;;;;;0.13;0.13;;;;;;;10.37;68.12;99082.69;5074130;28;20219;-81
2022/09/19 01:03:10;;;;;;;0.17;0.17;;;;;;;10.41;67.51;99085.84;5074394;28;20289;-82
2022/09/19 01:05:55;;;;;;;0.10;0.10;;;;;;;10.50;68.10;99087.78;5073423;28;20218;-81
2022/09/19 01:08:45;;;;;;;0.30;0.30;;;;;;;10.47;67.55;99089.72;5073123;28;20293;-82
2022/09/19 01:11:40;;;;;;;0.20;0.20;;;;;;;10.45;68.44;99082.16;5073336;28;20214;-82
2022/09/19 01:14:17;;;;;;;0.20;0.20;;;;;;;10.51;67.67;99093.69;5075800;28;20737;-82
2022/09/19 01:16:50;;;;;;;0.37;0.37;;;;;;;10.53;68.07;99090.09;5078606;28;20233;-82
2022/09/19 01:19:48;;;;;;;0.20;0.20;;;;;;;10.58;68.41;99097.44;5078106;28;20226;-82
2022/09/19 01:22:24;;;;;;;0.20;0.20;;;;;;;10.58;68.33;99085.44;5076079;28;20194;-82
2022/09/19 01:24:58;;;;;;;0.33;0.33;;;;;;;10.51;68.66;99089.38;5075666;28;20195;-82
2022/09/19 01:27:44;;;;;;;0.40;0.37;;;;;;;10.43;68.34;99091.69;5075586;28;20198;-82
2022/09/19 01:30:14;;;;;;;0.20;0.20;;;;;;;10.41;68.67;99098.63;5074062;28;20218;-82
2022/09/19 01:32:51;;;;;;;0.50;0.30;;;;;;;10.28;68.67;99093.59;5073990;28;20252;-82
2022/09/19 01:35:25;;;;;;;0.10;0.10;;;;;;;10.29;67.96;99090.09;5073817;28;20222;-82
2022/09/19 01:37:58;;;;;;;0.10;0.10;;;;;;;10.33;68.64;99095.81;5073354;28;20245;-82
2022/09/19 01:40:25;;;;;;;0.13;0.13;;;;;;;10.34;68.03;99087.22;5073536;28;20322;-82
2022/09/19 01:42:55;;;;;;;0.30;0.30;;;;;;;10.26;67.98;99080.06;5072844;28;20209;-82
2022/09/19 01:45:25;;;;;;;0.10;0.10;;;;;;;10.40;67.37;99092.72;5073147;28;20222;-82
2022/09/19 01:48:06;;;;;;;0.20;0.20;;;;;;;10.49;68.02;99091.22;5073899;28;20194;-82
2022/09/19 01:50:46;;;;;;;0.10;0.10;;;;;;;10.43;67.14;99089.13;5078989;28;20252;-82
2022/09/19 01:53:26;;;;;;;0.20;0.20;;;;;;;10.42;67.60;99088.31;5076981;28;20186;-82
2022/09/19 01:56:02;;;;;;;0.83;0.20;;;;;;;10.53;67.67;99081.59;5076264;28;20249;-82
2022/09/19 01:58:40;;;;;;;0.30;0.30;;;;;;;10.44;66.96;99077.97;5074486;28;20260;-82
2022/09/19 02:01:16;;;;;;;0.10;0.10;;;;;;;10.40;67.49;99081.66;5074918;28;20305;-82
2022/09/19 02:03:50;;;;;;;0.20;0.20;;;;;;;10.43;67.33;99079.72;5074006;28;20693;-82
2022/09/19 02:06:25;;;;;;;0.20;0.20;;;;;;;10.48;67.04;99083.69;5073781;28;20218;-81
2022/09/19 02:08:59;;;;;;;0.20;0.20;;;;;;;10.49;66.64;99081.00;5073285;28;20194;-82
2022/09/19 02:11:27;;;;;;;0.20;0.20;;;;;;;10.57;66.98;99083.03;5072706;28;20245;-82
2022/09/19 02:14:00;;;;;;;0.73;0.20;;;;;;;10.62;66.26;99073.28;5072739;28;20267;-82
2022/09/19 02:16:34;;;;;;;0.20;0.20;;;;;;;10.62;65.47;99071.53;5072489;28;20309;-81
2022/09/19 02:19:07;;;;;;;0.20;0.20;;;;;;;10.69;65.51;99076.22;5072093;28;20238;-82
2022/09/19 02:21:38;;;;;;;0.20;0.20;;;;;;;10.69;65.48;99069.34;5072631;28;20218;-82
2022/09/19 02:24:13;;;;;;;0.20;0.20;;;;;;;10.76;64.70;99067.16;5078126;28;20203;-82
2022/09/19 02:26:43;;;;;;;0.20;0.20;;;;;;;10.80;65.03;99074.50;5076067;28;20225;-82
2022/09/19 02:29:14;;;;;;;0.07;0.07;;;;;;;10.77;64.89;99067.03;5076894;28;20241;-82
2022/09/19 02:31:43;;;;;;;0.10;0.10;;;;;;;10.86;64.92;99078.34;5075735;28;20214;-82
2022/09/19 02:34:10;;;;;;;0.20;0.20;;;;;;;10.87;64.56;99079.97;5074342;28;20206;-81
2022/09/19 02:36:43;;;;;;;0.30;0.30;;;;;;;10.87;64.25;99075.66;5073476;28;20223;-81
2022/09/19 02:39:17;;;;;;;0.40;0.17;;;;;;;10.92;64.36;99082.19;5073680;28;20220;-82
2022/09/19 02:41:52;;;;;;;0.20;0.20;;;;;;;10.95;63.88;99087.91;5072726;28;20230;-82
2022/09/19 02:44:24;;;;;;;0.20;0.20;;;;;;;10.95;64.07;99077.66;5072752;28;20284;-82
2022/09/19 02:47:01;;;;;;;0.10;0.10;;;;;;;11.00;64.70;99075.59;5071799;28;20284;-82
2022/09/19 02:49:38;;;;;;;0.20;0.20;;;;;;;11.01;64.30;99081.50;5071536;28;20198;-82
2022/09/19 02:52:12;;;;;;;0.10;0.10;;;;;;;10.99;64.04;99078.25;5071798;28;20224;-82
2022/09/19 02:54:42;;;;;;;0.10;0.10;;;;;;;10.95;64.43;99085.34;5071811;28;20233;-82
2022/09/19 02:57:13;;;;;;;0.10;0.10;;;;;;;10.89;64.64;99088.34;5071332;28;20231;-82
2022/09/19 02:59:44;;;;;;;0.43;0.40;;;;;;;10.96;64.48;99089.50;5070339;28;20219;-82
2022/09/19 03:02:17;;;;;;;0.20;0.20;;;;;;;10.98;64.74;99094.53;5071536;28;20712;-82
2022/09/19 03:04:49;;;;;;;0.33;0.33;;;;;;;10.97;64.42;99091.16;5077105;28;20198;-82
2022/09/19 03:07:25;;;;;;;0.20;0.20;;;;;;;10.97;64.44;99086.03;5076228;28;20198;-82
2022/09/19 03:09:59;;;;;;;0.20;0.20;;;;;;;10.94;64.82;99083.72;5074588;28;20202;-82
2022/09/19 03:12:31;;;;;;;0.10;0.10;;;;;;;10.91;64.87;99086.50;5075147;28;20214;-82
2022/09/19 03:14:58;;;;;;;0.10;0.10;;;;;;;10.87;65.04;99085.06;5073941;28;20195;-82
2022/09/19 03:17:32;;;;;;;0.10;0.10;;;;;;;10.81;64.84;99080.41;5074017;28;20202;-82
2022/09/19 03:19:59;;;;;;;0.10;0.10;;;;;;;10.79;65.15;99082.25;5073321;28;20654;-82
2022/09/19 03:22:26;;;;;;;0.17;0.13;;;;;;;10.78;65.27;99086.56;5073328;28;20229;-82
2022/09/19 03:24:53;;;;;;;0.10;0.10;;;;;;;10.78;65.60;99085.75;5072256;28;20205;-82
2022/09/19 03:27:20;;;;;;;0.37;0.37;;;;;;;10.78;64.96;99090.88;5071884;28;20285;-82
2022/09/19 03:29:47;;;;;;;0.30;0.30;;;;;;;10.74;65.67;99086.91;5072544;28;20190;-82
2022/09/19 03:32:14;;;;;;;0.20;0.20;;;;;;;10.73;65.54;99087.81;5072494;28;20198;-81
2022/09/19 03:34:43;;;;;;;0.27;0.27;;;;;;;10.72;65.63;99083.66;5072204;28;20194;-81
2022/09/19 03:37:10;;;;;;;0.20;0.20;;;;;;;10.73;65.84;99077.59;5071926;28;20223;-81
2022/09/19 03:39:38;;;;;;;0.20;0.20;;;;;;;10.68;65.88;99082.25;5071786;28;20257;-81
2022/09/19 03:42:06;;;;;;;0.33;0.33;;;;;;;10.62;66.32;99081.75;5074479;28;20214;-81
2022/09/19 03:44:33;;;;;;;0.40;0.40;;;;;;;10.57;66.30;99085.56;5079885;28;20844;-81
2022/09/19 03:47:00;;;;;;;0.23;0.23;;;;;;;10.56;66.72;99076.25;5078670;28;20226;-82
2022/09/19 03:49:28;;;;;;;0.30;0.30;;;;;;;10.54;66.78;99076.38;5076594;28;20206;-81
2022/09/19 03:51:59;;;;;;;0.10;0.10;;;;;;;10.52;66.71;99070.56;5075382;28;20269;-81
2022/09/19 03:54:27;;;;;;;0.30;0.30;;;;;;;10.54;66.53;99073.84;5074113;28;20198;-81
2022/09/19 03:56:54;;;;;;;0.20;0.20;;;;;;;10.54;66.60;99070.47;5073231;28;20309;-82
2022/09/19 03:59:21;;;;;;;0.10;0.10;;;;;;;10.59;67.63;99065.84;5072622;28;20863;-81
2022/09/19 04:01:48;;;;;;;0.20;0.20;;;;;;;10.62;67.11;99070.72;5071656;28;20222;-81
2022/09/19 04:04:15;;;;;;;0.40;0.40;;;;;;;10.54;67.47;99068.72;5071672;28;20229;-81
2022/09/19 04:06:42;;;;;;;0.30;0.20;;;;;;;10.48;67.35;99069.16;5071437;28;20228;-82
2022/09/19 04:09:10;;;;;;;0.00;0.00;;;;;;;10.43;67.63;99066.13;5071175;28;20704;-81
2022/09/19 04:11:41;;;;;;;0.30;0.30;;;;;;;10.38;68.10;99074.13;5074857;28;20218;-81
2022/09/19 04:14:08;;;;;;;0.20;0.20;;;;;;;10.36;68.44;99075.16;5075344;28;20630;-81
2022/09/19 04:16:36;;;;;;;0.20;0.20;;;;;;;10.34;68.91;99071.88;5075951;28;20309;-82
2022/09/19 04:19:05;;;;;;;0.20;0.20;;;;;;;10.33;69.12;99080.50;5082533;28;20246;-81
2022/09/19 04:21:31;;;;;;;0.30;0.30;;;;;;;10.31;69.52;99062.69;5080951;28;20245;-81
2022/09/19 04:23:58;;;;;;;0.20;0.20;;;;;;;10.28;69.47;99072.34;5079150;28;20203;-82
2022/09/19 04:26:26;;;;;;;0.33;0.27;;;;;;;10.32;69.74;99076.28;5078528;28;20701;-81
2022/09/19 04:28:53;;;;;;;0.10;0.10;;;;;;;10.28;69.92;99077.44;5077303;28;20198;-82
2022/09/19 04:31:22;;;;;;;0.43;0.37;;;;;;;10.27;70.18;99075.78;5076892;28;20587;-81
2022/09/19 04:33:48;;;;;;;0.10;0.10;;;;;;;10.28;69.60;99082.56;5076654;28;20206;-81
2022/09/19 04:36:16;;;;;;;0.20;0.20;;;;;;;10.29;69.68;99084.97;5076164;28;20304;-81
2022/09/19 04:38:43;;;;;;;0.20;0.20;;;;;;;10.29;69.39;99084.97;5075178;28;20257;-81
2022/09/19 04:41:10;;;;;;;0.20;0.20;;;;;;;10.29;69.50;99086.72;5075165;28;20214;-81
2022/09/19 04:43:38;;;;;;;0.10;0.10;;;;;;;10.34;69.59;99085.47;5074673;28;20673;-81
2022/09/19 04:46:06;;;;;;;0.20;0.20;;;;;;;10.43;69.95;99089.13;5074830;28;20215;-81
2022/09/19 04:48:33;;;;;;;0.30;0.30;;;;;;;10.50;69.87;99087.78;5073854;28;20202;-82
2022/09/19 04:51:00;;;;;;;0.13;0.13;;;;;;;10.59;69.74;99087.09;5074875;28;20227;-81
2022/09/19 04:53:27;;;;;;;0.30;0.30;;;;;;;10.69;69.58;99081.31;5083471;28;20213;-82
2022/09/19 04:55:55;;;;;;;0.10;0.10;;;;;;;10.77;68.91;99079.03;5080686;28;20226;-81
2022/09/19 04:58:23;;;;;;;0.20;0.20;;;;;;;10.82;68.12;99076.91;5078421;28;20225;-82
2022/09/19 05:00:56;;;;;;;0.13;0.13;;;;;;;10.95;68.15;99085.34;5078662;28;20218;-82
2022/09/19 05:03:25;;;;;;;0.40;0.40;;;;;;;11.08;67.05;99083.50;5076144;28;20294;-82
2022/09/19 05:05:53;;;;;;;0.47;0.43;;;;;;;11.23;66.74;99091.78;5075432;28;20280;-81
2022/09/19 05:08:25;;;;;;;0.10;0.10;;;;;;;11.38;66.64;99094.94;5075281;28;20269;-82
2022/09/19 05:10:53;;;;;;;0.37;0.30;;;;;;;11.54;67.05;99094.56;5075400;28;20759;-82
2022/09/19 05:13:20;;;;;;;0.27;0.27;;;;;;;11.77;66.29;99091.06;5075046;28;20195;-81
2022/09/19 05:15:47;;;;;;;0.30;0.30;;;;;;;11.97;65.10;99096.44;5074609;28;20238;-81
2022/09/19 05:18:16;;;;;;;0.20;0.20;;;;;;;12.25;64.62;99100.22;5074222;28;20206;-81
2022/09/19 05:20:43;;;;;;;0.53;0.20;;;;;;;12.48;63.54;99092.44;5072962;28;20273;-83
2022/09/19 05:23:10;;;;;;;0.50;0.30;;;;;;;12.72;62.19;99093.03;5071810;28;20285;-84
2022/09/19 05:25:39;;;;;;;0.20;0.20;;;;;;;12.98;61.24;99096.06;5077126;28;20218;-84
2022/09/19 05:28:07;;;;;;;0.20;0.20;;;;;;;13.26;60.95;99091.22;5078756;28;20202;-84
2022/09/19 05:30:35;;;;;;;0.20;0.20;;;;;;;13.49;59.17;99097.00;5077683;28;20226;-84
2022/09/19 05:33:02;;;;;;;1.20;0.30;;;;;;;13.73;58.93;99105.22;5078233;28;20202;-84
2022/09/19 05:35:31;;;;;;;0.20;0.20;;;;;;;14.02;58.98;99094.19;5076698;28;20242;-84
2022/09/19 05:37:58;;;;;;;0.20;0.20;;;;;;;14.26;58.19;99092.06;5076130;28;20200;-84
2022/09/19 05:40:26;;;;;;;0.50;0.40;;;;;;;14.48;55.32;99110.75;5074804;28;20695;-84
2022/09/19 05:42:59;;;;;;;0.50;0.50;;;;;;;14.60;54.99;99102.00;5073813;28;20206;-84
2022/09/19 05:45:27;;;;;;;0.40;0.40;;;;;;;14.82;55.20;99102.66;5073544;28;20519;-84
2022/09/19 05:48:00;;;;;;;0.67;0.50;;;;;;;14.98;54.28;99104.63;5072874;28;20205;-84
2022/09/19 05:50:26;;;;;;;0.30;0.30;;;;;;;15.21;53.01;99102.56;5072618;28;20218;-84
2022/09/19 05:55:40;;;;;;;0.60;0.60;;;;;;;15.58;52.91;99111.09;5072315;28;20245;-84
2022/09/19 05:58:07;;;;;;;0.40;0.40;;;;;;;15.74;51.37;99109.72;5073122;28;20207;-84
2022/09/19 06:00:37;;;;;;;0.30;0.30;;;;;;;15.95;52.61;99107.69;5072002;28;20725;-83
2022/09/19 06:03:07;;;;;;;0.33;0.33;;;;;;;15.98;50.66;99106.59;5077318;28;20209;-84
2022/09/19 06:05:39;;;;;;;0.40;0.40;;;;;;;16.15;51.66;99108.41;5076763;28;20227;-84
2022/09/19 06:08:08;;;;;;;0.27;0.27;;;;;;;16.33;49.41;99111.00;5075235;28;20703;-84
2022/09/19 06:10:37;;;;;;;0.47;0.37;;;;;;;16.50;49.93;99102.44;5073287;28;20219;-84
2022/09/19 06:13:04;;;;;;;0.40;0.40;;;;;;;16.78;49.15;99110.09;5073573;28;20201;-84
2022/09/19 06:15:31;;;;;;;0.50;0.50;;;;;;;16.87;47.12;99104.06;5071974;28;20218;-84
2022/09/19 06:17:58;;;;;;;0.30;0.30;;;;;;;16.94;48.00;99105.06;5071664;28;20581;-84
2022/09/19 06:20:26;;;;;;;0.37;0.37;;;;;;;16.94;47.43;99105.06;5071748;28;20246;-83
2022/09/19 06:22:57;;;;;;;0.50;0.50;;;;;;;17.09;46.46;99101.94;5071504;28;20213;-83
2022/09/19 06:25:27;;;;;;;0.57;0.43;;;;;;;17.32;48.26;99105.63;5071453;28;20764;-84
2022/09/19 06:27:54;;;;;;;0.40;0.40;;;;;;;17.25;46.08;99103.78;5073095;28;20641;-83
2022/09/19 06:30:22;;;;;;;0.20;0.20;;;;;;;17.30;46.42;99109.31;5071969;28;20729;-83
2022/09/19 06:32:49;;;;;;;0.20;0.20;;;;;;;17.54;45.62;99113.78;5072895;28;20721;-83
2022/09/19 06:35:16;;;;;;;0.40;0.40;;;;;;;17.71;45.40;99102.53;5071385;28;20223;-84
2022/09/19 06:37:43;;;;;;;0.60;0.30;;;;;;;18.07;46.70;99110.16;5072875;28;20207;-84
2022/09/19 06:40:11;;;;;;;0.40;0.40;;;;;;;18.30;45.60;99108.56;5073665;28;20230;-83
2022/09/19 06:42:40;;;;;;;0.20;0.20;;;;;;;18.59;44.02;99101.28;5071611;28;20214;-83
2022/09/19 06:45:08;;;;;;;0.30;0.30;;;;;;;18.45;42.80;99105.34;5071704;28;20232;-82
2022/09/19 06:47:36;;;;;;;0.10;0.10;;;;;;;18.64;45.22;99110.19;5071111;28;20228;-83
2022/09/19 06:50:04;;;;;;;0.20;0.20;;;;;;;19.06;44.47;99109.22;5070837;28;20220;-83
2022/09/19 06:52:31;;;;;;;0.30;0.30;;;;;;;19.26;44.53;99109.69;5071089;28;20661;-83
2022/09/19 06:54:58;;;;;;;0.40;0.40;;;;;;;19.39;41.89;99115.13;5071106;28;20583;-83
2022/09/19 06:57:25;;;;;;;0.20;0.20;;;;;;;19.64;43.53;99110.69;5070994;28;20639;-83
2022/09/19 06:59:53;;;;;;;0.30;0.30;;;;;;;19.90;43.21;99117.41;5070942;28;20239;-83
2022/09/19 07:02:21;;;;;;;0.13;0.13;;;;;;;19.99;40.31;99113.78;5070787;28;20207;-83
2022/09/19 07:04:49;;;;;;;0.17;0.17;;;;;;;19.96;41.09;99116.72;5070647;28;20206;-83
2022/09/19 07:07:16;;;;;;;2.23;0.20;;;;;;;20.03;39.95;99117.66;5070540;28;20238;-83
2022/09/19 07:09:43;;;;;;;0.17;0.17;;;;;;;20.25;39.82;99112.66;5071681;28;20200;-84
2022/09/19 07:12:10;;;;;;;0.47;0.47;;;;;;;20.38;39.21;99110.28;5070576;28;20223;-84
2022/09/19 07:14:37;;;;;;;0.30;0.10;;;;;;;20.38;38.89;99104.28;5070908;28;20665;-84
2022/09/19 07:17:06;;;;;;;0.30;0.30;;;;;;;20.64;40.59;99098.78;5070419;28;20231;-84
2022/09/19 07:19:33;;;;;;;0.20;0.20;;;;;;;20.45;39.05;99103.44;5070713;28;20241;-84
2022/09/19 07:21:59;;;;;;;0.23;0.23;;;;;;;20.74;39.19;99101.91;5071089;28;20217;-83
2022/09/19 07:24:26;;;;;;;0.23;0.23;;;;;;;21.05;38.65;99106.19;5072183;28;20202;-83
2022/09/19 07:26:53;;;;;;;0.30;0.30;;;;;;;21.03;39.25;99104.59;5071027;28;20237;-84
2022/09/19 07:29:20;;;;;;;0.40;0.40;;;;;;;21.15;36.46;99101.56;5070830;28;20603;-84
2022/09/19 07:31:47;;;;;;;0.20;0.20;;;;;;;21.18;36.98;99106.41;5071162;28;20220;-84
2022/09/19 07:34:16;;;;;;;0.30;0.30;;;;;;;21.30;36.89;99112.75;5070778;28;20203;-84
2022/09/19 07:36:42;;;;;;;0.63;0.40;;;;;;;21.62;35.59;99108.19;5070437;28;20225;-84
2022/09/19 07:39:10;;;;;;;0.30;0.30;;;;;;;21.83;34.68;99104.84;5070619;28;20205;-84
2022/09/19 07:41:37;;;;;;;0.50;0.20;;;;;;;22.22;38.86;99108.88;5070315;28;20272;-84
2022/09/19 07:44:04;;;;;;;0.20;0.20;;;;;;;22.54;36.92;99105.78;5070629;28;20284;-84
2022/09/19 07:46:31;;;;;;;0.30;0.30;;;;;;;22.65;35.59;99109.66;5074225;28;20227;-83
2022/09/19 07:48:58;;;;;;;0.20;0.20;;;;;;;22.41;35.06;99112.69;5075014;28;20213;-84
2022/09/19 07:51:30;;;;;;;0.20;0.20;;;;;;;22.38;34.42;99106.03;5075055;28;20232;-84
2022/09/19 07:53:57;;;;;;;0.22;0.22;;;;;;;21.98;37.08;99097.00;5074858;28;20199;-83
2022/09/19 07:56:24;;;;;;;0.20;0.20;;;;;;;22.09;35.11;99105.13;5077354;28;20233;-81
2022/09/19 07:58:51;;;;;;;0.37;0.37;;;;;;;21.93;35.51;99094.94;5076594;28;20205;-82
2022/09/19 08:01:18;;;;;;;0.13;0.13;;;;;;;22.47;35.60;99101.50;5075476;28;20245;-82
2022/09/19 08:03:46;;;;;;;0.20;0.20;;;;;;;22.73;34.32;99090.50;5075861;28;20582;-82
2022/09/19 08:06:13;;;;;;;0.20;0.20;;;;;;;22.78;34.57;99096.75;5075529;28;20716;-82
2022/09/19 08:08:42;;;;;;;0.40;0.40;;;;;;;22.82;34.94;99090.16;5074840;28;20239;-82
2022/09/19 08:11:11;;;;;;;0.30;0.30;;;;;;;22.91;37.01;99087.41;5075078;28;20675;-82
2022/09/19 08:13:37;;;;;;;0.25;0.25;;;;;;;22.94;33.84;99087.03;5075080;28;20199;-82
2022/09/19 08:16:06;;;;;;;0.27;0.27;;;;;;;22.45;34.13;99085.25;5074388;28;20229;-82
2022/09/19 08:18:32;;;;;;;0.40;0.30;;;;;;;23.02;34.65;99079.09;5074386;28;20669;-81
2022/09/19 08:20:59;;;;;;;0.35;0.35;;;;;;;23.17;33.59;99071.94;5074259;28;20258;-82
2022/09/19 08:23:28;;;;;;;0.38;0.38;;;;;;;23.44;34.07;99066.84;5076294;28;20218;-82
2022/09/19 08:25:56;;;;;;;0.20;0.20;;;;;;;23.61;32.69;99072.56;5074541;28;20226;-82
2022/09/19 08:28:23;;;;;;;0.28;0.28;;;;;;;23.61;33.56;99062.09;5074579;28;20198;-81
2022/09/19 08:30:51;;;;;;;0.30;0.30;;;;;;;23.91;32.30;99058.22;5074314;28;20246;-82
2022/09/19 08:33:18;;;;;;;0.32;0.32;;;;;;;24.24;31.79;99056.66;5074616;28;20281;-82
2022/09/19 08:35:45;;;;;;;0.30;0.30;;;;;;;24.04;33.69;99052.22;5075661;28;20222;-82
2022/09/19 08:38:13;;;;;;;0.60;0.50;;;;;;;23.73;32.46;99045.69;5074506;28;20206;-82
2022/09/19 08:40:59;;;;;;;0.68;0.32;;;;;;;23.87;34.28;99045.75;5073995;28;20231;-82
2022/09/19 08:43:35;;;;;;;0.38;0.38;;;;;;;23.92;33.74;99043.34;5073937;28;20199;-81
2022/09/19 08:46:13;;;;;;;0.43;0.38;;;;;;;24.33;35.59;99042.38;5073882;28;20218;-82
2022/09/19 08:48:49;;;;;;;0.20;0.20;;;;;;;24.38;33.10;99042.59;5073721;28;20199;-81
2022/09/19 08:51:21;;;;;;;3.20;0.40;;;;;;;24.67;31.92;99030.13;5074397;28;20222;-84
2022/09/19 08:53:54;;;;;;;0.20;0.20;;;;;;;25.03;32.58;99040.91;5075753;28;20202;-84
2022/09/19 08:56:21;;;;;;;0.30;0.30;;;;;;;25.27;32.50;99043.88;5072314;28;20226;-84
2022/09/19 08:58:55;;;;;;;0.30;0.30;;;;;;;24.97;28.90;99031.28;5074267;28;20670;-84
2022/09/19 09:01:23;;;;;;;0.32;0.32;;;;;;;24.72;29.67;99030.31;5072916;28;20633;-84
2022/09/19 09:04:07;;;;;;;0.20;0.20;;;;;;;24.69;31.30;99028.09;5072763;28;20294;-84
2022/09/19 09:06:44;;;;;;;0.93;0.40;;;;;;;24.43;30.39;99023.72;5072580;28;20301;-85
2022/09/19 09:09:22;;;;;;;0.30;0.30;;;;;;;24.61;30.06;99027.31;5072977;28;20197;-85
2022/09/19 09:12:01;;;;;;;0.20;0.20;;;;;;;24.30;30.12;99024.50;5072618;28;20214;-85
2022/09/19 09:14:46;;;;;;;0.30;0.30;;;;;;;24.38;31.45;99017.25;5073128;28;20226;-85
2022/09/19 09:17:24;;;;;;;0.20;0.20;;;;;;;24.55;30.29;99019.47;5072836;28;20272;-84
2022/09/19 09:20:09;;;;;;;0.20;0.20;;;;;;;24.35;29.78;99016.88;5072353;28;20594;-84
2022/09/19 09:22:43;;;;;;;0.20;0.20;;;;;;;24.63;29.52;99020.06;5073422;28;20199;-85
2022/09/19 09:25:14;;;;;;;0.20;0.20;;;;;;;24.73;30.16;99014.44;5073463;28;20744;-84
2022/09/19 09:27:47;;;;;;;0.30;0.30;;;;;;;24.20;30.90;99005.78;5073665;28;20241;-83
2022/09/19 09:30:19;;;;;;;0.30;0.30;;;;;;;24.53;29.24;99004.00;5073298;28;20291;-83
2022/09/19 09:32:50;;;;;;;0.30;0.30;;;;;;;25.17;30.37;98999.84;5073472;28;20195;-83
2022/09/19 09:35:26;;;;;;;0.20;0.20;;;;;;;25.42;29.23;99002.53;5073513;28;20614;-83
2022/09/19 09:38:02;;;;;;;0.15;0.15;;;;;;;25.39;29.15;98997.72;5073662;28;20582;-83
2022/09/19 09:43:41;;;;;;;0.20;0.20;;;;;;;25.22;28.92;98988.75;5073420;28;20202;-83
2022/09/19 09:46:18;;;;;;;0.30;0.30;;;;;;;24.81;29.45;99000.31;5073732;28;20620;-82
2022/09/19 09:48:45;;;;;;;0.32;0.30;;;;;;;25.08;29.73;98991.41;5072882;28;20234;-83
2022/09/19 09:51:25;;;;;;;0.40;0.40;;;;;;;25.39;30.49;98987.25;5075403;28;20233;-83
2022/09/19 09:56:14;;;;;;;0.40;0.40;;;;;;;25.61;27.50;99000.03;5077876;28;20207;-83
2022/09/19 09:57:05;;;;;;;0.10;0.10;;;;;;;25.49;26.52;98990.22;5074099;28;20301;-84
2022/09/19 10:05:33;;;;;;;0.20;0.20;;;;;;;26.50;27.39;98987.72;5072949;28;20634;-84
2022/09/19 10:08:11;;;;;;;0.20;0.20;;;;;;;26.60;28.92;98982.78;5071683;28;20207;-83
2022/09/19 10:10:39;;;;;;;0.30;0.30;;;;;;;26.57;27.02;98985.84;5072070;28;20606;-84
2022/09/19 10:13:18;;;;;;;0.28;0.28;;;;;;;26.49;27.70;98989.50;5071911;28;20230;-84
2022/09/19 10:15:54;;;;;;;0.20;0.20;;;;;;;26.39;28.62;98982.16;5071799;28;20265;-84
2022/09/19 10:18:26;;;;;;;0.10;0.10;;;;;;;26.32;26.30;98976.16;5071506;28;20199;-84
2022/09/19 10:20:54;;;;;;;0.28;0.28;;;;;;;26.48;27.96;98964.31;5071740;28;20243;-84
2022/09/19 10:23:24;;;;;;;0.20;0.20;;;;;;;26.14;28.46;98963.81;5074122;28;20207;-84
2022/09/19 10:25:52;;;;;;;0.30;0.30;;;;;;;26.11;25.83;98963.44;5073843;28;20709;-84
2022/09/19 10:28:27;;;;;;;0.30;0.30;;;;;;;26.13;25.11;98972.69;5073533;28;20207;-84
2022/09/19 10:30:58;;;;;;;0.30;0.30;;;;;;;26.39;28.14;98963.78;5072164;28;20477;-84
2022/09/19 10:33:40;;;;;;;0.20;0.20;;;;;;;26.62;25.72;98954.53;5071640;28;20234;-84
2022/09/19 10:36:16;;;;;;;0.20;0.20;;;;;;;26.86;27.77;98950.22;5070973;28;20280;-84
2022/09/19 10:38:53;;;;;;;0.30;0.30;;;;;;;26.49;24.71;98937.06;5071713;28;20187;-84
2022/09/19 10:41:22;;;;;;;0.20;0.20;;;;;;;26.01;25.88;98931.69;5071472;28;20287;-84
2022/09/19 10:43:51;;;;;;;0.50;0.40;;;;;;;26.09;26.75;98928.78;5071331;28;20248;-83
2022/09/19 10:46:21;;;;;;;0.30;0.30;;;;;;;26.12;27.04;98933.59;5070957;28;20234;-83
2022/09/19 10:48:56;;;;;;;0.55;0.43;;;;;;;25.76;26.93;98919.34;5071394;28;20688;-83
2022/09/19 10:51:29;;;;;;;0.35;0.30;;;;;;;25.60;27.93;98931.16;5072483;28;20210;-83
2022/09/19 10:53:58;;;;;;;0.80;0.30;;;;;;;25.60;25.90;98925.94;5075170;28;20211;-84
2022/09/19 10:56:28;;;;;;;0.20;0.20;;;;;;;25.24;27.90;98910.84;5074430;28;20864;-83
2022/09/19 10:59:03;;;;;;;0.20;0.20;;;;;;;25.38;27.75;98904.53;5072791;28;20210;-84
2022/09/19 11:01:31;;;;;;;0.28;0.28;;;;;;;25.67;27.93;98915.41;5073189;28;20233;-83
2022/09/19 11:04:04;;;;;;;0.20;0.20;;;;;;;25.40;26.46;98905.13;5072735;28;20199;-84
2022/09/19 11:06:33;;;;;;;0.20;0.20;;;;;;;25.84;28.28;98906.03;5072855;28;20225;-84
2022/09/19 11:09:01;;;;;;;0.30;0.30;;;;;;;25.89;26.91;98903.59;5071159;28;20203;-84
2022/09/19 11:11:36;;;;;;;0.40;0.40;;;;;;;25.69;25.56;98897.66;5071767;28;20605;-84
2022/09/19 11:14:26;;;;;;;0.15;0.15;;;;;;;26.18;28.11;98901.31;5071195;28;20198;-83
2022/09/19 11:17:19;;;;;;;0.20;0.20;;;;;;;26.12;25.92;98891.66;5070577;28;20321;-84
2022/09/19 11:20:08;;;;;;;0.20;0.20;;;;;;;26.32;26.42;98896.72;5074691;28;20195;-84
2022/09/19 11:22:46;;;;;;;0.10;0.10;;;;;;;26.10;24.97;98896.34;5074568;28;20230;-85
2022/09/19 11:25:24;;;;;;;0.30;0.30;;;;;;;25.62;26.91;98896.91;5072853;28;20218;-84
2022/09/19 11:28:05;;;;;;;2.25;1.65;;;;;;;25.94;27.25;98885.38;5072780;28;20198;-84
2022/09/19 11:30:39;;;;;;;0.40;0.20;;;;;;;25.90;26.65;98878.97;5071206;28;20226;-84
2022/09/19 11:33:39;;;;;;;0.30;0.30;;;;;;;26.02;25.19;98880.91;5071547;28;20199;-84
2022/09/19 11:36:12;;;;;;;0.40;0.40;;;;;;;26.14;27.72;98879.97;5071344;28;20215;-84
2022/09/19 11:38:53;;;;;;;0.30;0.30;;;;;;;26.27;28.48;98871.19;5070669;28;20206;-84
2022/09/19 11:41:31;;;;;;;0.30;0.30;;;;;;;26.08;26.58;98869.53;5070840;28;20242;-84
2022/09/19 11:44:15;;;;;;;0.30;0.30;;;;;;;26.15;27.41;98875.50;5070904;28;20206;-83
2022/09/19 11:46:54;;;;;;;0.20;0.20;;;;;;;25.84;24.59;98869.38;5070652;28;20229;-84
2022/09/19 11:49:49;;;;;;;0.20;0.20;;;;;;;25.82;26.93;98866.16;5073644;28;20191;-84
2022/09/19 11:52:28;;;;;;;1.85;0.38;;;;;;;26.18;26.54;98860.19;5074205;28;20221;-84
2022/09/19 11:55:07;;;;;;;0.10;0.10;;;;;;;26.29;26.82;98856.00;5072836;28;20202;-84
2022/09/19 11:57:41;;;;;;;0.10;0.10;;;;;;;26.57;27.36;98852.09;5071454;28;20202;-84
2022/09/19 12:00:19;;;;;;;0.10;0.10;;;;;;;26.54;25.79;98852.56;5073004;28;20229;-84
2022/09/19 12:03:24;;;;;;;0.20;0.20;;;;;;;26.02;24.63;98846.84;5071460;28;20234;-83
2022/09/19 12:06:04;;;;;;;0.30;0.30;;;;;;;26.10;24.81;98851.81;5071036;28;20272;-83
2022/09/19 12:08:52;;;;;;;0.15;0.15;;;;;;;26.22;26.50;98855.28;5070298;28;20604;-84